Juneau, Wisconsin
Current Conditions -  °F | °C
As of 4:15 AM on Saturday 25 Oct 2014 (Local Time) from KUNU Reporting Station
Haze Haze  
Wind Chill: 52°   Ceiling: 600
Heat Index: 52°   Visibility: 1.5mi
Dew Point: 51°   Wind: 7mph
Humidity: 97%   Direction: 230°SW
Pressure: 29.87"   Gusts: NA
Location:  43.41°N, 88.71°W
Report Text: KUNU 250915Z AUTO 23006KT 1 1/2SM BR BKN006 11/11 A2987 RMK AO2 T01110107
Loading
Personal Weather Stations






























Interactive Weather Map
Tropical Storm Tracking
New forecast layout! Learn more

10-Day Weather Forecast

Advertisements
Track Severe Weather on mobile